Huvudsida
METAR-TAF:

METAR-TAF

Flygplatser :

Trondheim, Norge

Trondheims flygplats. Værnes

latitud: 63-28N, longitud: 010-56E, höjd: 1 m

Aktuellt väderrapport

Denna rapport gjordes för 31 minuter sedan, klockan 02:50 UTC
Vind 4 kt från ost, varierande mellan nord/nordost och sydost
Temperatur -6°C
Fuktighet 68%
Tryck 995 hPa
Sikt 10 km eller mer
Inga moln under 1 500 m eller inga cumulonimbus

METAR: ENVA 190250Z 10004KT 020V140 CAVOK M06/M11 Q0995 RMK WIND 670FT 14009KT

Tid: 04:21 (03:21 UTC)

Väderprognos

Prognos gäller från 19 kl. 00 UTC till 19 kl. 24 UTC
Vind 7 kt från ost
Sikt 10 km eller mer
Inga moln under 1 500 m eller inga cumulonimbus
Temporärt
från 19 kl. 00 UTC till 19 kl. 24 UTC
Vind 17 kt från ost/sydost

TAF: ENVA 1900/1924 10007KT CAVOK TEMPO 1900/1924 11017KT

Aktuella väderrapporter och prognoser från 4000 flygplatser (METAR- och TAF-rapporter).

De tillgängliga stationerna syns som gula och röda prickar på kartan.

För musen över prickarna för att se namnen på stationerna.

Klicka sedan för att få väderrapporter och prognoser.

För att ändra kartan: Klicka på de gröna knapparna med ett svart kors på för att zooma in; den gröna knappen med ett streck på för att zooma ut; eller på de gröna pilarna för angränsande kartor.


METAR-TAF: